sensor_id;sensor_type;location;lat;lon;timestamp;P1;durP1;ratioP1;P2;durP2;ratioP2
75667;SDS011;64266;48.798;44.756;2023-06-19T00:04:58;6.55;;;1.33;;
75667;SDS011;64266;48.798;44.756;2023-06-19T00:10:01;6.85;;;1.27;;
75667;SDS011;64266;48.798;44.756;2023-06-19T00:15:04;4.13;;;1.23;;
75667;SDS011;64266;48.798;44.756;2023-06-19T00:20:08;3.95;;;1.08;;
75667;SDS011;64266;48.798;44.756;2023-06-19T00:25:11;4.10;;;1.08;;
75667;SDS011;64266;48.798;44.756;2023-06-19T00:30:14;5.65;;;1.05;;
75667;SDS011;64266;48.798;44.756;2023-06-19T00:35:19;7.95;;;2.38;;
75667;SDS011;64266;48.798;44.756;2023-06-19T00:45:30;4.25;;;1.00;;
75667;SDS011;64266;48.798;44.756;2023-06-19T00:50:34;7.32;;;1.20;;
75667;SDS011;64266;48.798;44.756;2023-06-19T00:55:39;2.42;;;1.10;;
75667;SDS011;64266;48.798;44.756;2023-06-19T01:00:43;6.35;;;1.15;;
75667;SDS011;64266;48.798;44.756;2023-06-19T01:06:05;7.45;;;1.20;;
75667;SDS011;64266;48.798;44.756;2023-06-19T01:11:15;5.13;;;1.00;;
75667;SDS011;64266;48.798;44.756;2023-06-19T01:16:29;3.33;;;1.20;;
75667;SDS011;64266;48.798;44.756;2023-06-19T01:21:32;5.00;;;1.17;;
75667;SDS011;64266;48.798;44.756;2023-06-19T01:26:38;5.03;;;1.02;;
75667;SDS011;64266;48.798;44.756;2023-06-19T01:31:43;2.40;;;1.10;;
75667;SDS011;64266;48.798;44.756;2023-06-19T01:36:52;9.07;;;1.30;;
75667;SDS011;64266;48.798;44.756;2023-06-19T01:41:59;8.40;;;1.50;;
75667;SDS011;64266;48.798;44.756;2023-06-19T01:47:08;10.13;;;3.85;;
75667;SDS011;64266;48.798;44.756;2023-06-19T01:52:16;53.22;;;14.80;;
75667;SDS011;64266;48.798;44.756;2023-06-19T01:57:20;76.57;;;23.08;;
75667;SDS011;64266;48.798;44.756;2023-06-19T02:02:24;45.58;;;16.33;;
75667;SDS011;64266;48.798;44.756;2023-06-19T02:07:27;36.15;;;13.07;;
75667;SDS011;64266;48.798;44.756;2023-06-19T02:12:29;28.38;;;11.13;;
75667;SDS011;64266;48.798;44.756;2023-06-19T02:17:33;14.88;;;5.28;;
75667;SDS011;64266;48.798;44.756;2023-06-19T02:22:37;8.60;;;2.80;;
75667;SDS011;64266;48.798;44.756;2023-06-19T02:27:41;5.50;;;1.40;;
75667;SDS011;64266;48.798;44.756;2023-06-19T02:32:44;4.60;;;2.22;;
75667;SDS011;64266;48.798;44.756;2023-06-19T02:37:47;4.50;;;1.40;;
75667;SDS011;64266;48.798;44.756;2023-06-19T02:42:50;11.50;;;1.27;;
75667;SDS011;64266;48.798;44.756;2023-06-19T02:47:52;7.97;;;1.67;;
75667;SDS011;64266;48.798;44.756;2023-06-19T02:52:55;6.95;;;1.73;;
75667;SDS011;64266;48.798;44.756;2023-06-19T02:57:58;3.13;;;1.00;;
75667;SDS011;64266;48.798;44.756;2023-06-19T03:03:00;4.60;;;1.02;;
75667;SDS011;64266;48.798;44.756;2023-06-19T03:08:02;4.30;;;1.05;;
75667;SDS011;64266;48.798;44.756;2023-06-19T03:13:05;4.00;;;1.48;;
75667;SDS011;64266;48.798;44.756;2023-06-19T03:18:08;4.78;;;1.92;;
75667;SDS011;64266;48.798;44.756;2023-06-19T03:23:14;4.20;;;1.20;;
75667;SDS011;64266;48.798;44.756;2023-06-19T03:28:17;3.67;;;1.20;;
75667;SDS011;64266;48.798;44.756;2023-06-19T03:33:20;8.60;;;1.50;;
75667;SDS011;64266;48.798;44.756;2023-06-19T03:38:23;4.57;;;1.20;;
75667;SDS011;64266;48.798;44.756;2023-06-19T03:43:27;5.70;;;1.38;;
75667;SDS011;64266;48.798;44.756;2023-06-19T03:48:30;6.75;;;1.20;;
75667;SDS011;64266;48.798;44.756;2023-06-19T03:53:35;7.47;;;1.88;;
75667;SDS011;64266;48.798;44.756;2023-06-19T03:58:38;8.68;;;1.33;;
75667;SDS011;64266;48.798;44.756;2023-06-19T04:03:40;5.03;;;1.33;;
75667;SDS011;64266;48.798;44.756;2023-06-19T04:08:44;5.70;;;1.55;;
75667;SDS011;64266;48.798;44.756;2023-06-19T04:13:48;4.43;;;1.83;;
75667;SDS011;64266;48.798;44.756;2023-06-19T04:18:51;4.75;;;1.30;;
75667;SDS011;64266;48.798;44.756;2023-06-19T04:23:55;5.07;;;1.48;;
75667;SDS011;64266;48.798;44.756;2023-06-19T04:28:59;6.05;;;1.77;;
75667;SDS011;64266;48.798;44.756;2023-06-19T04:34:03;9.40;;;1.65;;
75667;SDS011;64266;48.798;44.756;2023-06-19T04:39:07;4.25;;;1.60;;
75667;SDS011;64266;48.798;44.756;2023-06-19T04:49:13;8.00;;;1.55;;
75667;SDS011;64266;48.798;44.756;2023-06-19T04:54:16;7.20;;;1.67;;
75667;SDS011;64266;48.798;44.756;2023-06-19T04:59:20;18.88;;;2.08;;
75667;SDS011;64266;48.798;44.756;2023-06-19T05:04:24;9.43;;;1.77;;
75667;SDS011;64266;48.798;44.756;2023-06-19T05:09:28;6.55;;;1.70;;
75667;SDS011;64266;48.798;44.756;2023-06-19T05:14:32;27.10;;;3.65;;
75667;SDS011;64266;48.798;44.756;2023-06-19T05:19:34;12.48;;;3.92;;
75667;SDS011;64266;48.798;44.756;2023-06-19T05:24:37;8.23;;;1.83;;
75667;SDS011;64266;48.798;44.756;2023-06-19T05:29:40;7.38;;;1.55;;
75667;SDS011;64266;48.798;44.756;2023-06-19T05:34:43;6.97;;;1.88;;
75667;SDS011;64266;48.798;44.756;2023-06-19T05:39:46;6.28;;;1.90;;
75667;SDS011;64266;48.798;44.756;2023-06-19T05:44:49;9.15;;;1.42;;
75667;SDS011;64266;48.798;44.756;2023-06-19T05:49:59;5.38;;;1.33;;
75667;SDS011;64266;48.798;44.756;2023-06-19T05:55:03;11.23;;;5.20;;
75667;SDS011;64266;48.798;44.756;2023-06-19T06:00:08;6.70;;;2.20;;
75667;SDS011;64266;48.798;44.756;2023-06-19T06:05:17;6.80;;;1.83;;
75667;SDS011;64266;48.798;44.756;2023-06-19T06:10:23;7.45;;;2.10;;
75667;SDS011;64266;48.798;44.756;2023-06-19T06:15:28;7.50;;;2.00;;
75667;SDS011;64266;48.798;44.756;2023-06-19T06:20:31;9.77;;;2.38;;
75667;SDS011;64266;48.798;44.756;2023-06-19T06:25:34;5.95;;;2.13;;
75667;SDS011;64266;48.798;44.756;2023-06-19T06:30:37;13.95;;;5.28;;
75667;SDS011;64266;48.798;44.756;2023-06-19T06:35:42;7.55;;;2.22;;
75667;SDS011;64266;48.798;44.756;2023-06-19T06:40:46;9.55;;;2.15;;
75667;SDS011;64266;48.798;44.756;2023-06-19T06:45:50;4.93;;;1.25;;
75667;SDS011;64266;48.798;44.756;2023-06-19T06:50:54;16.25;;;5.90;;
75667;SDS011;64266;48.798;44.756;2023-06-19T06:56:04;7.38;;;1.85;;
75667;SDS011;64266;48.798;44.756;2023-06-19T07:01:12;4.57;;;1.42;;
75667;SDS011;64266;48.798;44.756;2023-06-19T07:06:19;7.80;;;1.80;;
75667;SDS011;64266;48.798;44.756;2023-06-19T07:11:22;11.75;;;4.60;;
75667;SDS011;64266;48.798;44.756;2023-06-19T07:16:25;5.88;;;1.52;;
75667;SDS011;64266;48.798;44.756;2023-06-19T07:21:28;3.35;;;1.58;;
75667;SDS011;64266;48.798;44.756;2023-06-19T07:26:32;8.88;;;2.90;;
75667;SDS011;64266;48.798;44.756;2023-06-19T07:31:36;13.20;;;1.77;;
75667;SDS011;64266;48.798;44.756;2023-06-19T07:36:39;3.63;;;1.38;;
75667;SDS011;64266;48.798;44.756;2023-06-19T07:41:45;8.23;;;1.58;;
75667;SDS011;64266;48.798;44.756;2023-06-19T07:47:01;4.75;;;1.25;;
75667;SDS011;64266;48.798;44.756;2023-06-19T07:52:15;6.63;;;1.67;;
75667;SDS011;64266;48.798;44.756;2023-06-19T07:58:05;6.30;;;1.75;;
75667;SDS011;64266;48.798;44.756;2023-06-19T08:03:09;4.53;;;1.30;;
75667;SDS011;64266;48.798;44.756;2023-06-19T08:08:12;5.38;;;1.38;;
75667;SDS011;64266;48.798;44.756;2023-06-19T08:13:23;5.88;;;1.85;;
75667;SDS011;64266;48.798;44.756;2023-06-19T08:18:29;8.80;;;3.22;;
75667;SDS011;64266;48.798;44.756;2023-06-19T08:28:37;5.78;;;2.50;;
75667;SDS011;64266;48.798;44.756;2023-06-19T08:33:46;5.13;;;1.33;;
75667;SDS011;64266;48.798;44.756;2023-06-19T08:39:07;6.72;;;2.65;;
75667;SDS011;64266;48.798;44.756;2023-06-19T08:44:16;8.48;;;1.52;;
75667;SDS011;64266;48.798;44.756;2023-06-19T08:49:20;7.25;;;2.65;;
75667;SDS011;64266;48.798;44.756;2023-06-19T08:54:25;6.90;;;1.83;;
75667;SDS011;64266;48.798;44.756;2023-06-19T08:59:30;3.40;;;1.13;;
75667;SDS011;64266;48.798;44.756;2023-06-19T09:04:35;4.72;;;1.63;;
75667;SDS011;64266;48.798;44.756;2023-06-19T09:09:43;10.48;;;4.75;;
75667;SDS011;64266;48.798;44.756;2023-06-19T09:15:11;6.28;;;1.65;;
75667;SDS011;64266;48.798;44.756;2023-06-19T09:20:25;5.63;;;1.48;;
75667;SDS011;64266;48.798;44.756;2023-06-19T09:25:30;3.65;;;1.45;;
75667;SDS011;64266;48.798;44.756;2023-06-19T09:30:33;9.85;;;2.30;;
75667;SDS011;64266;48.798;44.756;2023-06-19T09:35:36;5.75;;;2.60;;
75667;SDS011;64266;48.798;44.756;2023-06-19T09:40:40;10.23;;;1.80;;
75667;SDS011;64266;48.798;44.756;2023-06-19T09:45:47;5.07;;;1.60;;
75667;SDS011;64266;48.798;44.756;2023-06-19T09:51:07;7.15;;;1.73;;
75667;SDS011;64266;48.798;44.756;2023-06-19T09:56:16;4.00;;;2.08;;
75667;SDS011;64266;48.798;44.756;2023-06-19T10:01:26;4.85;;;1.33;;
75667;SDS011;64266;48.798;44.756;2023-06-19T10:06:32;5.75;;;2.50;;
75667;SDS011;64266;48.798;44.756;2023-06-19T10:11:49;8.85;;;2.35;;
75667;SDS011;64266;48.798;44.756;2023-06-19T10:17:07;4.47;;;1.50;;
75667;SDS011;64266;48.798;44.756;2023-06-19T10:22:18;8.38;;;1.85;;
75667;SDS011;64266;48.798;44.756;2023-06-19T10:27:26;5.07;;;1.40;;
75667;SDS011;64266;48.798;44.756;2023-06-19T10:32:28;6.85;;;2.08;;
75667;SDS011;64266;48.798;44.756;2023-06-19T10:37:32;8.93;;;2.45;;
75667;SDS011;64266;48.798;44.756;2023-06-19T10:42:36;6.70;;;1.80;;
75667;SDS011;64266;48.798;44.756;2023-06-19T10:47:40;11.48;;;2.92;;
75667;SDS011;64266;48.798;44.756;2023-06-19T10:52:44;7.10;;;1.50;;
75667;SDS011;64266;48.798;44.756;2023-06-19T10:57:48;6.10;;;1.40;;
75667;SDS011;64266;48.798;44.756;2023-06-19T11:02:52;3.15;;;1.20;;
75667;SDS011;64266;48.798;44.756;2023-06-19T11:07:57;6.40;;;1.42;;
75667;SDS011;64266;48.798;44.756;2023-06-19T11:13:01;6.00;;;1.73;;
75667;SDS011;64266;48.798;44.756;2023-06-19T11:18:05;8.20;;;1.83;;
75667;SDS011;64266;48.798;44.756;2023-06-19T11:23:10;6.65;;;1.20;;
75667;SDS011;64266;48.798;44.756;2023-06-19T11:28:14;15.40;;;2.10;;
75667;SDS011;64266;48.798;44.756;2023-06-19T11:33:25;4.50;;;1.55;;
75667;SDS011;64266;48.798;44.756;2023-06-19T11:38:30;7.35;;;1.67;;
75667;SDS011;64266;48.798;44.756;2023-06-19T11:43:34;7.65;;;1.48;;
75667;SDS011;64266;48.798;44.756;2023-06-19T11:48:40;3.45;;;1.20;;
75667;SDS011;64266;48.798;44.756;2023-06-19T11:54:07;6.10;;;2.17;;
75667;SDS011;64266;48.798;44.756;2023-06-19T11:59:13;6.15;;;1.58;;
75667;SDS011;64266;48.798;44.756;2023-06-19T12:04:17;7.75;;;1.63;;
75667;SDS011;64266;48.798;44.756;2023-06-19T12:09:20;4.07;;;1.33;;
75667;SDS011;64266;48.798;44.756;2023-06-19T12:14:24;6.78;;;1.65;;
75667;SDS011;64266;48.798;44.756;2023-06-19T12:19:28;7.85;;;1.83;;
75667;SDS011;64266;48.798;44.756;2023-06-19T12:24:32;3.50;;;1.40;;
75667;SDS011;64266;48.798;44.756;2023-06-19T12:29:36;5.13;;;1.23;;
75667;SDS011;64266;48.798;44.756;2023-06-19T12:34:39;4.90;;;1.80;;
75667;SDS011;64266;48.798;44.756;2023-06-19T12:39:43;9.77;;;3.10;;
75667;SDS011;64266;48.798;44.756;2023-06-19T12:44:48;5.97;;;1.95;;
75667;SDS011;64266;48.798;44.756;2023-06-19T12:49:52;4.18;;;1.50;;
75667;SDS011;64266;48.798;44.756;2023-06-19T12:54:55;4.68;;;1.40;;
75667;SDS011;64266;48.798;44.756;2023-06-19T13:00:03;9.57;;;1.80;;
75667;SDS011;64266;48.798;44.756;2023-06-19T13:05:12;4.80;;;2.40;;
75667;SDS011;64266;48.798;44.756;2023-06-19T13:10:15;4.13;;;1.30;;
75667;SDS011;64266;48.798;44.756;2023-06-19T13:15:17;4.70;;;1.67;;
75667;SDS011;64266;48.798;44.756;2023-06-19T13:20:21;6.15;;;1.55;;
75667;SDS011;64266;48.798;44.756;2023-06-19T13:25:24;6.10;;;1.58;;
75667;SDS011;64266;48.798;44.756;2023-06-19T13:30:29;5.00;;;1.52;;
75667;SDS011;64266;48.798;44.756;2023-06-19T13:35:33;5.30;;;1.40;;
75667;SDS011;64266;48.798;44.756;2023-06-19T13:40:36;14.13;;;3.60;;
75667;SDS011;64266;48.798;44.756;2023-06-19T13:45:40;11.88;;;3.63;;
75667;SDS011;64266;48.798;44.756;2023-06-19T13:50:46;6.53;;;3.08;;
75667;SDS011;64266;48.798;44.756;2023-06-19T13:55:51;4.82;;;1.33;;
75667;SDS011;64266;48.798;44.756;2023-06-19T14:00:55;5.82;;;1.90;;
75667;SDS011;64266;48.798;44.756;2023-06-19T14:06:00;5.53;;;1.60;;
75667;SDS011;64266;48.798;44.756;2023-06-19T14:11:03;6.97;;;1.20;;
75667;SDS011;64266;48.798;44.756;2023-06-19T14:16:07;8.82;;;3.35;;
75667;SDS011;64266;48.798;44.756;2023-06-19T14:21:10;10.82;;;2.53;;
75667;SDS011;64266;48.798;44.756;2023-06-19T14:26:14;5.38;;;1.70;;
75667;SDS011;64266;48.798;44.756;2023-06-19T14:31:17;6.68;;;1.63;;
75667;SDS011;64266;48.798;44.756;2023-06-19T14:36:19;7.38;;;1.98;;
75667;SDS011;64266;48.798;44.756;2023-06-19T14:41:22;5.72;;;1.52;;
75667;SDS011;64266;48.798;44.756;2023-06-19T14:46:26;5.43;;;1.85;;
75667;SDS011;64266;48.798;44.756;2023-06-19T14:51:32;8.43;;;2.53;;
75667;SDS011;64266;48.798;44.756;2023-06-19T14:56:36;6.70;;;2.10;;
75667;SDS011;64266;48.798;44.756;2023-06-19T15:01:39;5.40;;;1.33;;
75667;SDS011;64266;48.798;44.756;2023-06-19T15:06:42;11.30;;;1.80;;
75667;SDS011;64266;48.798;44.756;2023-06-19T15:11:46;9.63;;;1.80;;
75667;SDS011;64266;48.798;44.756;2023-06-19T15:16:50;7.97;;;2.15;;
75667;SDS011;64266;48.798;44.756;2023-06-19T15:21:53;7.13;;;1.73;;
75667;SDS011;64266;48.798;44.756;2023-06-19T15:26:55;11.02;;;4.97;;
75667;SDS011;64266;48.798;44.756;2023-06-19T15:32:00;14.80;;;3.10;;
75667;SDS011;64266;48.798;44.756;2023-06-19T15:37:04;7.82;;;1.98;;
75667;SDS011;64266;48.798;44.756;2023-06-19T15:42:07;6.45;;;2.30;;
75667;SDS011;64266;48.798;44.756;2023-06-19T15:47:10;7.22;;;2.80;;
75667;SDS011;64266;48.798;44.756;2023-06-19T15:52:12;5.55;;;2.40;;
75667;SDS011;64266;48.798;44.756;2023-06-19T15:57:15;10.30;;;2.88;;
75667;SDS011;64266;48.798;44.756;2023-06-19T16:02:19;12.48;;;3.65;;
75667;SDS011;64266;48.798;44.756;2023-06-19T16:07:23;12.23;;;3.80;;
75667;SDS011;64266;48.798;44.756;2023-06-19T16:12:25;5.70;;;2.25;;
75667;SDS011;64266;48.798;44.756;2023-06-19T16:17:28;4.57;;;2.15;;
75667;SDS011;64266;48.798;44.756;2023-06-19T16:22:32;6.45;;;2.55;;
75667;SDS011;64266;48.798;44.756;2023-06-19T16:27:37;36.47;;;3.50;;
75667;SDS011;64266;48.798;44.756;2023-06-19T16:32:53;11.80;;;2.92;;
75667;SDS011;64266;48.798;44.756;2023-06-19T16:37:56;8.15;;;3.33;;
75667;SDS011;64266;48.798;44.756;2023-06-19T16:42:59;12.32;;;3.42;;
75667;SDS011;64266;48.798;44.756;2023-06-19T16:48:01;7.88;;;2.95;;
75667;SDS011;64266;48.798;44.756;2023-06-19T16:53:05;6.60;;;3.03;;
75667;SDS011;64266;48.798;44.756;2023-06-19T16:58:08;8.98;;;3.28;;
75667;SDS011;64266;48.798;44.756;2023-06-19T17:03:11;11.18;;;3.88;;
75667;SDS011;64266;48.798;44.756;2023-06-19T17:08:15;18.15;;;4.72;;
75667;SDS011;64266;48.798;44.756;2023-06-19T17:13:19;10.52;;;3.78;;
75667;SDS011;64266;48.798;44.756;2023-06-19T17:18:22;10.65;;;2.78;;
75667;SDS011;64266;48.798;44.756;2023-06-19T17:23:25;14.00;;;3.80;;
75667;SDS011;64266;48.798;44.756;2023-06-19T17:28:27;13.57;;;4.88;;
75667;SDS011;64266;48.798;44.756;2023-06-19T17:33:30;17.42;;;5.60;;
75667;SDS011;64266;48.798;44.756;2023-06-19T17:38:32;17.63;;;7.22;;
75667;SDS011;64266;48.798;44.756;2023-06-19T17:43:35;23.15;;;8.77;;
75667;SDS011;64266;48.798;44.756;2023-06-19T17:48:37;24.98;;;5.85;;
75667;SDS011;64266;48.798;44.756;2023-06-19T17:53:40;20.23;;;4.18;;
75667;SDS011;64266;48.798;44.756;2023-06-19T17:58:43;12.55;;;3.65;;
75667;SDS011;64266;48.798;44.756;2023-06-19T18:03:45;11.07;;;3.80;;
75667;SDS011;64266;48.798;44.756;2023-06-19T18:08:48;12.35;;;4.38;;
75667;SDS011;64266;48.798;44.756;2023-06-19T18:13:51;12.07;;;3.97;;
75667;SDS011;64266;48.798;44.756;2023-06-19T18:18:53;10.15;;;4.07;;
75667;SDS011;64266;48.798;44.756;2023-06-19T18:23:56;13.45;;;5.00;;
75667;SDS011;64266;48.798;44.756;2023-06-19T18:28:58;17.15;;;4.55;;
75667;SDS011;64266;48.798;44.756;2023-06-19T18:34:02;18.95;;;3.78;;
75667;SDS011;64266;48.798;44.756;2023-06-19T18:39:05;15.35;;;3.67;;
75667;SDS011;64266;48.798;44.756;2023-06-19T18:44:07;9.73;;;3.03;;
75667;SDS011;64266;48.798;44.756;2023-06-19T18:49:10;7.80;;;2.50;;
75667;SDS011;64266;48.798;44.756;2023-06-19T18:54:13;9.20;;;2.17;;
75667;SDS011;64266;48.798;44.756;2023-06-19T18:59:15;6.50;;;2.10;;
75667;SDS011;64266;48.798;44.756;2023-06-19T19:04:18;8.15;;;2.00;;
75667;SDS011;64266;48.798;44.756;2023-06-19T19:09:20;6.82;;;2.05;;
75667;SDS011;64266;48.798;44.756;2023-06-19T19:14:23;8.07;;;2.30;;
75667;SDS011;64266;48.798;44.756;2023-06-19T19:19:25;12.85;;;2.88;;
75667;SDS011;64266;48.798;44.756;2023-06-19T19:24:29;6.90;;;2.45;;
75667;SDS011;64266;48.798;44.756;2023-06-19T19:29:31;7.65;;;2.85;;
75667;SDS011;64266;48.798;44.756;2023-06-19T19:34:34;9.52;;;2.70;;
75667;SDS011;64266;48.798;44.756;2023-06-19T19:39:36;7.28;;;3.00;;
75667;SDS011;64266;48.798;44.756;2023-06-19T19:44:39;13.25;;;2.95;;
75667;SDS011;64266;48.798;44.756;2023-06-19T19:49:42;11.93;;;2.67;;
75667;SDS011;64266;48.798;44.756;2023-06-19T19:54:45;8.48;;;2.85;;
75667;SDS011;64266;48.798;44.756;2023-06-19T19:59:49;16.08;;;5.15;;
75667;SDS011;64266;48.798;44.756;2023-06-19T20:04:52;7.32;;;2.72;;
75667;SDS011;64266;48.798;44.756;2023-06-19T20:09:55;8.90;;;2.58;;
75667;SDS011;64266;48.798;44.756;2023-06-19T20:14:59;7.95;;;2.25;;
75667;SDS011;64266;48.798;44.756;2023-06-19T20:20:07;9.13;;;2.20;;
75667;SDS011;64266;48.798;44.756;2023-06-19T20:25:10;6.53;;;2.53;;
75667;SDS011;64266;48.798;44.756;2023-06-19T20:30:13;6.78;;;2.20;;
75667;SDS011;64266;48.798;44.756;2023-06-19T20:35:16;6.47;;;1.90;;
75667;SDS011;64266;48.798;44.756;2023-06-19T20:40:18;9.65;;;3.97;;
75667;SDS011;64266;48.798;44.756;2023-06-19T20:45:21;7.13;;;2.28;;
75667;SDS011;64266;48.798;44.756;2023-06-19T20:50:29;12.00;;;3.53;;
75667;SDS011;64266;48.798;44.756;2023-06-19T20:55:31;20.70;;;6.28;;
75667;SDS011;64266;48.798;44.756;2023-06-19T21:00:34;16.40;;;6.20;;
75667;SDS011;64266;48.798;44.756;2023-06-19T21:05:37;12.35;;;4.53;;
75667;SDS011;64266;48.798;44.756;2023-06-19T21:10:39;10.15;;;4.65;;
75667;SDS011;64266;48.798;44.756;2023-06-19T21:15:45;13.18;;;4.68;;
75667;SDS011;64266;48.798;44.756;2023-06-19T21:20:48;14.65;;;5.00;;
75667;SDS011;64266;48.798;44.756;2023-06-19T21:25:52;10.32;;;4.40;;
75667;SDS011;64266;48.798;44.756;2023-06-19T21:30:54;13.68;;;4.15;;
75667;SDS011;64266;48.798;44.756;2023-06-19T21:35:57;11.18;;;3.67;;
75667;SDS011;64266;48.798;44.756;2023-06-19T21:41:01;13.68;;;4.13;;
75667;SDS011;64266;48.798;44.756;2023-06-19T21:46:03;13.93;;;4.50;;
75667;SDS011;64266;48.798;44.756;2023-06-19T21:51:07;12.82;;;4.88;;
75667;SDS011;64266;48.798;44.756;2023-06-19T21:56:10;12.98;;;4.35;;
75667;SDS011;64266;48.798;44.756;2023-06-19T22:01:13;11.05;;;4.47;;
75667;SDS011;64266;48.798;44.756;2023-06-19T22:06:15;15.88;;;3.92;;
75667;SDS011;64266;48.798;44.756;2023-06-19T22:11:18;12.23;;;4.40;;
75667;SDS011;64266;48.798;44.756;2023-06-19T22:16:21;14.77;;;4.95;;
75667;SDS011;64266;48.798;44.756;2023-06-19T22:21:25;10.93;;;4.82;;
75667;SDS011;64266;48.798;44.756;2023-06-19T22:26:30;13.55;;;4.82;;
75667;SDS011;64266;48.798;44.756;2023-06-19T22:31:39;10.88;;;4.28;;
75667;SDS011;64266;48.798;44.756;2023-06-19T22:36:42;15.20;;;4.88;;
75667;SDS011;64266;48.798;44.756;2023-06-19T22:41:44;15.05;;;4.45;;
75667;SDS011;64266;48.798;44.756;2023-06-19T22:46:47;11.82;;;4.63;;
75667;SDS011;64266;48.798;44.756;2023-06-19T22:51:49;11.52;;;4.38;;
75667;SDS011;64266;48.798;44.756;2023-06-19T22:56:52;17.77;;;4.90;;
75667;SDS011;64266;48.798;44.756;2023-06-19T23:01:55;15.43;;;4.85;;
75667;SDS011;64266;48.798;44.756;2023-06-19T23:06:57;12.90;;;4.47;;
75667;SDS011;64266;48.798;44.756;2023-06-19T23:12:03;9.93;;;3.95;;
75667;SDS011;64266;48.798;44.756;2023-06-19T23:17:06;11.77;;;3.70;;
75667;SDS011;64266;48.798;44.756;2023-06-19T23:22:09;12.50;;;3.60;;
75667;SDS011;64266;48.798;44.756;2023-06-19T23:27:11;9.45;;;3.42;;
75667;SDS011;64266;48.798;44.756;2023-06-19T23:32:14;11.13;;;3.83;;
75667;SDS011;64266;48.798;44.756;2023-06-19T23:37:17;13.40;;;3.78;;
75667;SDS011;64266;48.798;44.756;2023-06-19T23:42:20;16.98;;;3.90;;
75667;SDS011;64266;48.798;44.756;2023-06-19T23:47:22;9.60;;;3.05;;
75667;SDS011;64266;48.798;44.756;2023-06-19T23:52:25;12.63;;;3.20;;
75667;SDS011;64266;48.798;44.756;2023-06-19T23:57:45;9.98;;;2.92;;
